Time;durP1;ratioP1;P1;durP2;ratioP2;P2;SDS_P1;SDS_P2;PMS_P1;PMS_P2;Temp;Humidity;BMP_temperature;BMP_pressure;BME280_temperature;BME280_humidity;BME280_pressure;Samples;Min_cycle;Max_cycle;Signal;HPM_P1;HPM_P2
2022/03/16 00:03:25;;;;;;;39.40;26.70;;;;;;;5.79;63.97;100066.60;446789;1269;207109;-65
2022/03/16 00:13:32;;;;;;;30.70;23.50;;;;;;;5.72;64.31;100061.13;432662;1268;141465;-63
2022/03/16 00:23:38;;;;;;;28.50;24.20;;;;;;;5.67;64.60;100043.58;434772;1270;145697;-61
2022/03/16 00:33:44;;;;;;;30.20;24.30;;;;;;;5.57;64.45;100039.58;441247;1268;141744;-67
2022/03/16 00:43:50;;;;;;;26.70;22.60;;;;;;;5.46;64.58;100029.39;447766;1270;141212;-67
2022/03/16 00:53:56;;;;;;;26.30;21.50;;;;;;;5.43;64.76;100024.11;437933;1270;141898;-68
2022/03/16 01:04:03;;;;;;;28.30;20.80;;;;;;;5.46;64.92;100027.30;446817;1269;142096;-67
2022/03/16 01:14:08;;;;;;;27.70;21.90;;;;;;;5.43;64.76;100020.47;447728;1269;141126;-67
2022/03/16 01:24:14;;;;;;;27.30;22.00;;;;;;;5.40;64.91;100016.23;441913;1269;142204;-67
2022/03/16 01:34:20;;;;;;;23.60;18.80;;;;;;;5.40;64.88;100005.09;442681;1269;143616;-67
2022/03/16 01:44:44;;;;;;;21.80;18.60;;;;;;;5.38;64.97;100009.20;444741;1269;143520;-66
2022/03/16 01:54:51;;;;;;;25.60;19.10;;;;;;;5.32;64.92;100005.23;435615;1269;141533;-67
2022/03/16 02:04:57;;;;;;;21.70;17.10;;;;;;;5.34;64.70;99999.60;447713;1270;142308;-67
2022/03/16 02:15:03;;;;;;;25.30;18.50;;;;;;;5.35;64.60;99996.80;447814;1269;140872;-67
2022/03/16 02:25:10;;;;;;;23.00;18.30;;;;;;;5.33;64.64;99994.23;443668;1269;141727;-67
2022/03/16 02:35:16;;;;;;;18.70;16.00;;;;;;;5.38;64.66;99990.59;447737;1270;142057;-67
2022/03/16 02:45:23;;;;;;;23.50;17.90;;;;;;;5.56;64.06;99992.55;446970;1269;141592;-67
2022/03/16 02:55:28;;;;;;;22.40;16.90;;;;;;;5.67;63.57;99996.35;439645;1269;142015;-67
2022/03/16 03:05:35;;;;;;;19.90;16.40;;;;;;;5.65;63.84;100007.19;445007;1269;141225;-67
2022/03/16 03:15:41;;;;;;;24.80;18.40;;;;;;;5.58;63.53;100010.71;443108;1270;141094;-66
2022/03/16 03:25:47;;;;;;;20.50;16.70;;;;;;;5.54;63.57;100018.16;447794;1269;141687;-66
2022/03/16 03:35:53;;;;;;;19.20;14.90;;;;;;;5.55;63.67;100028.20;447859;1270;142641;-67
2022/03/16 03:45:59;;;;;;;18.20;15.90;;;;;;;5.59;63.62;100031.36;447035;1269;142759;-67
2022/03/16 03:56:05;;;;;;;21.20;17.60;;;;;;;5.60;63.47;100028.16;447868;1269;141546;-66
2022/03/16 04:06:11;;;;;;;22.60;17.50;;;;;;;5.51;63.44;100025.89;447828;1268;141757;-65
2022/03/16 04:16:17;;;;;;;21.50;17.20;;;;;;;5.36;63.81;100036.32;439839;1270;195403;-65
2022/03/16 04:26:23;;;;;;;22.30;17.20;;;;;;;5.22;63.91;100037.52;435223;1269;141301;-67
2022/03/16 04:36:31;;;;;;;21.80;17.50;;;;;;;5.09;63.83;100041.95;446459;1269;142867;-68
2022/03/16 04:46:35;;;;;;;;;;;;;;;5.10;63.75;100046.95;440616;1269;143349;-65
2022/03/16 04:56:41;;;;;;;29.50;22.40;;;;;;;5.13;64.16;100051.52;445476;1269;128613;-68
2022/03/16 05:06:47;;;;;;;32.50;24.80;;;;;;;4.98;64.32;100068.52;439511;1269;142671;-67
2022/03/16 05:16:54;;;;;;;37.00;25.30;;;;;;;4.69;64.72;100076.36;431546;1269;141026;-67
2022/03/16 05:27:02;;;;;;;35.70;25.70;;;;;;;4.49;65.02;100081.85;431516;1270;141316;-66
2022/03/16 05:37:08;;;;;;;33.80;24.20;;;;;;;4.44;65.35;100097.96;435797;1270;141359;-67
2022/03/16 05:47:14;;;;;;;35.60;25.90;;;;;;;4.47;65.29;100103.75;431586;1270;142526;-66
2022/03/16 05:57:20;;;;;;;39.90;27.90;;;;;;;4.53;65.16;100115.03;431020;1270;196081;-69
2022/03/16 06:07:26;;;;;;;42.00;31.10;;;;;;;4.63;65.13;100131.70;432039;1270;142150;-67
2022/03/16 06:17:32;;;;;;;38.40;30.00;;;;;;;4.75;65.38;100142.60;435827;1270;141708;-67
2022/03/16 06:27:38;;;;;;;40.40;30.60;;;;;;;5.05;64.93;100153.98;446944;1267;143742;-67
2022/03/16 06:37:44;;;;;;;38.60;28.80;;;;;;;5.41;64.77;100155.60;447765;1268;142466;-67
2022/03/16 06:47:51;;;;;;;38.70;32.10;;;;;;;6.04;64.00;100163.72;447534;1269;142818;-68
2022/03/16 06:57:57;;;;;;;41.00;28.10;;;;;;;6.82;63.01;100167.59;446832;1269;142523;-69
2022/03/16 07:08:06;;;;;;;31.50;27.70;;;;;;;8.60;61.07;100173.60;443633;1270;142220;-66
2022/03/16 07:18:12;;;;;;;36.20;29.60;;;;;;;10.43;58.05;100184.06;447652;1268;142775;-66
2022/03/16 07:28:19;;;;;;;29.10;25.80;;;;;;;12.06;55.67;100194.81;445225;1269;210331;-67
2022/03/16 07:38:24;;;;;;;32.50;29.10;;;;;;;15.50;52.18;100200.67;447605;1270;141085;-68
2022/03/16 07:48:30;;;;;;;34.40;28.90;;;;;;;18.59;47.37;100199.55;446898;1267;142283;-68
2022/03/16 07:58:38;;;;;;;28.50;25.50;;;;;;;20.19;43.90;100206.66;447439;1269;186251;-66
2022/03/16 08:08:42;;;;;;;;;;;;;;;19.84;41.12;100217.20;447663;1269;141709;-65
2022/03/16 08:18:48;;;;;;;31.80;28.50;;;;;;;19.68;40.27;100231.48;436379;1269;131282;-64
2022/03/16 08:28:54;;;;;;;29.30;26.40;;;;;;;20.87;38.84;100232.58;430638;1270;142427;-64
2022/03/16 08:39:03;;;;;;;31.70;28.30;;;;;;;22.08;36.22;100226.57;430224;1270;141371;-67
2022/03/16 08:49:09;;;;;;;28.80;25.80;;;;;;;22.89;35.34;100239.58;447040;1270;142040;-64
2022/03/16 08:59:15;;;;;;;30.30;25.50;;;;;;;23.54;32.82;100226.11;445299;1269;141206;-64
2022/03/16 09:09:21;;;;;;;27.30;24.60;;;;;;;23.15;31.88;100237.42;434572;1269;142043;-60
2022/03/16 09:19:27;;;;;;;34.40;26.90;;;;;;;18.79;33.63;100254.06;447790;1269;142300;-60
2022/03/16 09:29:33;;;;;;;32.50;29.20;;;;;;;16.02;36.20;100266.79;447651;1270;141733;-63
2022/03/16 09:39:42;;;;;;;51.70;32.20;;;;;;;14.58;37.28;100283.80;446957;1269;144760;-58
2022/03/16 09:49:48;;;;;;;38.70;30.70;;;;;;;13.71;38.37;100296.34;441821;1270;141934;-68
2022/03/16 09:59:54;;;;;;;39.70;33.00;;;;;;;12.81;39.08;100310.77;432445;1269;141571;-66
2022/03/16 10:20:29;;;;;;;38.90;30.30;;;;;;;12.35;40.46;100331.66;447649;1270;141142;-71
2022/03/16 10:30:36;;;;;;;40.10;32.90;;;;;;;12.15;40.72;100338.58;444438;1270;141928;-80
2022/03/16 10:40:42;;;;;;;44.60;33.70;;;;;;;11.93;41.23;100349.84;433604;1270;141803;-77
2022/03/16 10:50:49;;;;;;;39.80;33.10;;;;;;;11.77;41.48;100358.28;445420;1269;142362;-70
2022/03/16 11:00:56;;;;;;;39.20;30.60;;;;;;;11.53;41.85;100368.93;446841;1269;141124;-70
2022/03/16 11:13:27;;;;;;;35.50;28.60;;;;;;;11.61;42.05;100380.37;447616;1270;141517;-71
2022/03/16 11:21:44;;;;;;;41.40;30.50;;;;;;;11.83;41.87;100386.88;442736;1270;141729;-61
2022/03/16 11:31:51;;;;;;;36.40;27.60;;;;;;;12.05;41.68;100390.94;447440;1270;142179;-60
2022/03/16 11:41:58;;;;;;;36.40;31.70;;;;;;;12.06;41.53;100388.77;447640;1269;141290;-63
2022/03/16 11:52:08;;;;;;;41.80;30.50;;;;;;;11.93;41.44;100384.20;447030;1270;145003;-67
2022/03/16 12:02:25;;;;;;;27.90;23.50;;;;;;;11.71;41.62;100376.17;447502;1269;290581;-69
2022/03/16 12:12:57;;;;;;;34.00;26.80;;;;;;;11.60;41.75;100372.02;446911;1269;199059;-59
2022/03/16 12:23:09;;;;;;;31.00;23.50;;;;;;;11.52;41.81;100379.50;447694;1269;141481;-63
2022/03/16 12:33:19;;;;;;;27.90;23.00;;;;;;;11.49;41.89;100381.04;444432;1269;142769;-62
2022/03/16 12:43:27;;;;;;;27.90;24.00;;;;;;;11.41;41.84;100379.56;446386;1270;141987;-61
2022/03/16 12:53:44;;;;;;;30.40;24.00;;;;;;;11.44;41.86;100383.94;433638;1270;143319;-61
2022/03/16 13:04:01;;;;;;;33.30;26.80;;;;;;;11.46;41.57;100396.63;446907;1269;142226;-61
2022/03/16 13:14:12;;;;;;;32.60;24.80;;;;;;;11.42;41.63;100395.11;447557;1270;142364;-58
2022/03/16 13:24:18;;;;;;;31.90;24.70;;;;;;;11.43;41.44;100393.82;446765;1270;141180;-61
2022/03/16 13:34:24;;;;;;;38.00;26.90;;;;;;;11.44;41.47;100397.83;447696;1269;141956;-62
2022/03/16 13:44:33;;;;;;;33.70;28.00;;;;;;;11.50;41.35;100398.50;447707;1269;144959;-63
2022/03/16 13:54:39;;;;;;;33.60;25.70;;;;;;;11.56;41.26;100404.20;446954;1268;141995;-62
2022/03/16 14:04:46;;;;;;;33.30;26.00;;;;;;;11.58;41.13;100419.30;444007;1270;142350;-61
2022/03/16 14:15:06;;;;;;;32.70;27.40;;;;;;;11.52;40.94;100426.67;441088;1269;141736;-63
2022/03/16 14:25:18;;;;;;;34.30;27.40;;;;;;;11.47;41.09;100434.08;443387;1270;142491;-59
2022/03/16 14:35:24;;;;;;;41.10;29.00;;;;;;;11.41;41.09;100440.72;439611;1270;141936;-60
2022/03/16 14:45:30;;;;;;;33.30;27.00;;;;;;;11.30;41.23;100449.02;430636;1270;141604;-63
2022/03/16 14:55:37;;;;;;;29.60;24.40;;;;;;;11.16;41.32;100466.05;432098;1270;141148;-65
2022/03/16 15:05:43;;;;;;;37.20;26.80;;;;;;;11.04;41.36;100466.88;432322;1270;141967;-59
2022/03/16 15:15:49;;;;;;;36.60;28.10;;;;;;;10.93;41.57;100474.56;435255;1269;142387;-66
2022/03/16 15:25:55;;;;;;;36.70;26.80;;;;;;;10.85;41.65;100473.63;432328;1270;141185;-64
2022/03/16 15:36:01;;;;;;;35.40;26.50;;;;;;;10.74;41.71;100482.77;432052;1270;143555;-67
2022/03/16 15:46:10;;;;;;;34.50;26.60;;;;;;;10.58;42.02;100497.37;431151;1270;141881;-64
2022/03/16 15:56:16;;;;;;;41.40;27.90;;;;;;;10.40;42.28;100509.05;431500;1270;142273;-65
2022/03/16 16:06:22;;;;;;;35.20;25.50;;;;;;;10.21;42.66;100520.80;430860;1270;142395;-62
2022/03/16 16:16:28;;;;;;;35.10;29.20;;;;;;;9.99;43.24;100533.91;433012;1270;142209;-61
2022/03/16 16:26:37;;;;;;;39.50;28.50;;;;;;;9.73;43.53;100540.12;431639;1270;141559;-60
2022/03/16 16:36:44;;;;;;;38.40;28.70;;;;;;;9.44;44.15;100549.49;430452;1270;141033;-65
2022/03/16 16:46:50;;;;;;;39.10;29.40;;;;;;;9.10;44.64;100565.75;431143;1270;142558;-62
2022/03/16 16:56:58;;;;;;;42.30;30.80;;;;;;;8.80;45.22;100571.70;430679;1270;140788;-59
2022/03/16 17:07:04;;;;;;;47.10;30.00;;;;;;;8.53;45.98;100581.69;431552;1271;141902;-61
2022/03/16 17:17:10;;;;;;;42.90;29.80;;;;;;;8.28;46.38;100592.02;432069;1270;141127;-63
2022/03/16 17:27:16;;;;;;;39.60;28.60;;;;;;;8.02;47.06;100602.77;430509;1270;143051;-62
2022/03/16 17:37:22;;;;;;;46.70;32.50;;;;;;;7.81;47.50;100605.13;430881;1270;141885;-61
2022/03/16 17:47:28;;;;;;;40.70;30.00;;;;;;;7.61;48.29;100611.02;430989;1270;141799;-61
2022/03/16 17:57:34;;;;;;;44.30;32.00;;;;;;;7.48;49.04;100616.55;432526;1270;141918;-61
2022/03/16 18:07:40;;;;;;;45.80;33.20;;;;;;;7.39;49.73;100623.99;438262;1267;141505;-62
2022/03/16 18:17:46;;;;;;;40.80;31.50;;;;;;;7.26;50.34;100632.27;440399;1270;141367;-63
2022/03/16 18:27:52;;;;;;;48.10;39.10;;;;;;;7.18;51.08;100636.70;431322;1270;141547;-66
2022/03/16 18:37:58;;;;;;;55.20;41.60;;;;;;;7.11;51.69;100637.48;433060;1270;141249;-65
2022/03/16 18:48:05;;;;;;;55.60;43.40;;;;;;;7.00;52.24;100646.33;431450;1270;140566;-65
2022/03/16 18:58:12;;;;;;;55.60;41.40;;;;;;;6.87;52.77;100653.35;432464;1269;141305;-61
2022/03/16 19:08:18;;;;;;;49.50;38.00;;;;;;;6.69;53.33;100665.95;431966;1270;141539;-63
2022/03/16 19:18:31;;;;;;;52.90;37.10;;;;;;;6.48;53.93;100672.64;430308;1270;141637;-60
2022/03/16 19:28:36;;;;;;;57.30;38.70;;;;;;;6.37;54.90;100683.41;430873;1270;143436;-63
2022/03/16 19:38:43;;;;;;;49.50;36.10;;;;;;;6.27;55.39;100693.58;431787;1270;141126;-61
2022/03/16 19:48:49;;;;;;;58.20;37.20;;;;;;;6.13;55.79;100702.16;432584;1269;140692;-59
2022/03/16 19:58:55;;;;;;;49.70;34.40;;;;;;;5.96;55.94;100712.65;431121;1270;141124;-59
2022/03/16 20:09:02;;;;;;;53.30;38.90;;;;;;;5.74;56.37;100717.05;432008;1270;141857;-61
2022/03/16 20:19:08;;;;;;;43.00;34.10;;;;;;;5.69;56.01;100734.04;432327;1270;141151;-64
2022/03/16 20:29:14;;;;;;;51.60;36.40;;;;;;;5.70;55.75;100746.52;431500;1270;142032;-61
2022/03/16 20:39:21;;;;;;;48.90;33.20;;;;;;;5.62;55.65;100756.45;430621;1269;142379;-65
2022/03/16 20:49:27;;;;;;;52.10;34.70;;;;;;;5.55;55.45;100768.78;431863;1270;141702;-64
2022/03/16 21:10:00;;;;;;;44.50;32.70;;;;;;;5.36;54.62;100788.66;430730;1270;141457;-62
2022/03/16 21:20:08;;;;;;;52.90;37.50;;;;;;;5.17;54.70;100797.58;439435;1269;141736;-66
2022/03/16 21:30:13;;;;;;;;;;;;;;;5.11;54.92;100805.38;431534;1270;162176;-68
2022/03/16 21:50:50;;;;;;;51.00;37.70;;;;;;;4.88;55.07;100808.27;430466;1268;143052;-61
2022/03/16 22:00:58;;;;;;;49.00;35.60;;;;;;;4.80;54.97;100817.64;431155;1270;146477;-58
2022/03/16 22:11:09;;;;;;;59.50;37.50;;;;;;;4.70;55.13;100824.61;432450;1270;140687;-58
2022/03/16 22:21:28;;;;;;;52.90;37.70;;;;;;;4.58;55.85;100838.36;430202;1270;178727;-59
2022/03/16 22:31:34;;;;;;;50.90;36.00;;;;;;;4.44;56.16;100853.18;432206;1270;142276;-58
2022/03/16 22:41:40;;;;;;;61.10;41.60;;;;;;;4.28;56.85;100866.99;431379;1269;140861;-57
2022/03/16 22:51:47;;;;;;;56.50;37.90;;;;;;;4.10;57.39;100875.96;429723;1269;141026;-58
2022/03/16 23:01:53;;;;;;;57.70;41.40;;;;;;;3.92;57.74;100883.69;430951;1270;141422;-58
2022/03/16 23:12:00;;;;;;;59.10;39.70;;;;;;;3.73;58.29;100880.86;430845;1269;140553;-64
2022/03/16 23:22:06;;;;;;;58.70;41.80;;;;;;;3.57;58.67;100880.76;432203;1270;141026;-64
2022/03/16 23:32:12;;;;;;;60.90;40.60;;;;;;;3.43;59.07;100886.31;434377;1270;142104;-64
2022/03/16 23:42:19;;;;;;;58.60;41.70;;;;;;;3.24;59.56;100892.10;431488;1270;141694;-64
2022/03/16 23:52:25;;;;;;;56.60;39.10;;;;;;;3.06;60.04;100896.98;431457;1270;141129;-64
